Time;durP1;ratioP1;P1;durP2;ratioP2;P2;SDS_P1;SDS_P2;PMS_P1;PMS_P2;Temp;Humidity;BMP_temperature;BMP_pressure;BME280_temperature;BME280_humidity;BME280_pressure;Samples;Min_cycle;Max_cycle;Signal;HPM_P1;HPM_P2
2021/05/19 00:01:50;;;;;;;28.60;13.95;;;;;;;8.15;85.46;101486.72;5106728;28;20082;-62
2021/05/19 00:04:16;;;;;;;29.13;14.50;;;;;;;8.06;86.13;101485.63;5103227;28;20030;-62
2021/05/19 00:06:42;;;;;;;29.30;14.68;;;;;;;8.00;86.16;101479.34;5106342;28;20031;-62
2021/05/19 00:09:09;;;;;;;28.38;15.02;;;;;;;7.97;86.67;101481.03;5103942;28;20190;-62
2021/05/19 00:11:36;;;;;;;29.73;15.27;;;;;;;7.88;87.17;101483.41;5105428;28;20043;-62
2021/05/19 00:14:04;;;;;;;29.98;15.15;;;;;;;7.89;88.07;101483.44;5105376;28;20024;-62
2021/05/19 00:16:29;;;;;;;29.55;14.93;;;;;;;7.89;88.73;101485.19;5103778;28;20111;-62
2021/05/19 00:18:55;;;;;;;28.33;15.27;;;;;;;7.80;88.63;101476.19;5105249;28;20058;-62
2021/05/19 00:21:21;;;;;;;29.58;16.20;;;;;;;7.74;89.59;101478.69;5101322;28;20044;-62
2021/05/19 00:23:46;;;;;;;29.05;15.50;;;;;;;7.78;90.14;101484.94;5106441;28;20023;-62
2021/05/19 00:26:11;;;;;;;31.10;17.05;;;;;;;7.76;90.21;101479.63;5103353;28;20032;-62
2021/05/19 00:28:37;;;;;;;29.92;15.68;;;;;;;7.67;91.21;101490.81;5104769;28;20031;-62
2021/05/19 00:31:05;;;;;;;32.45;15.80;;;;;;;7.66;91.37;101485.50;5104381;28;20110;-62
2021/05/19 00:33:31;;;;;;;29.08;16.05;;;;;;;7.62;91.65;101487.16;5103942;28;20111;-62
2021/05/19 00:35:56;;;;;;;29.83;16.35;;;;;;;7.58;92.70;101484.41;5105319;28;20115;-62
2021/05/19 00:38:23;;;;;;;28.58;15.55;;;;;;;7.58;92.60;101481.78;5102524;28;20035;-62
2021/05/19 00:40:49;;;;;;;27.98;15.82;;;;;;;7.56;93.27;101483.44;5106310;28;20032;-62
2021/05/19 00:43:14;;;;;;;28.80;15.85;;;;;;;7.64;92.90;101476.66;5102463;28;20032;-62
2021/05/19 00:45:40;;;;;;;30.63;16.02;;;;;;;7.54;92.96;101482.53;5104823;28;20103;-62
2021/05/19 00:48:07;;;;;;;27.83;15.57;;;;;;;7.47;93.59;101482.38;5103824;28;20035;-62
2021/05/19 00:50:33;;;;;;;29.40;16.08;;;;;;;7.43;94.31;101477.00;5103810;28;20031;-62
2021/05/19 00:52:58;;;;;;;30.17;16.95;;;;;;;7.43;95.12;101469.09;5104656;28;20385;-62
2021/05/19 00:55:24;;;;;;;30.70;17.27;;;;;;;7.44;95.54;101471.78;5102682;28;20039;-62
2021/05/19 00:57:52;;;;;;;30.00;16.73;;;;;;;7.30;96.39;101466.13;5105657;28;20055;-62
2021/05/19 01:00:20;;;;;;;28.48;16.90;;;;;;;7.38;97.58;101466.31;5098051;28;20024;-62
2021/05/19 01:02:46;;;;;;;29.95;17.65;;;;;;;7.33;96.86;101462.69;5105669;28;20056;-62
2021/05/19 01:05:18;;;;;;;29.75;17.55;;;;;;;7.37;98.06;101463.66;5102862;28;20118;-73
2021/05/19 01:10:32;;;;;;;30.50;17.75;;;;;;;7.19;98.24;101458.78;5050981;28;20135;-74
2021/05/19 01:12:57;;;;;;;32.00;18.50;;;;;;;7.15;99.66;101455.19;5051008;28;20255;-74
2021/05/19 01:15:23;;;;;;;33.10;19.38;;;;;;;7.16;100.00;101454.31;5050895;28;20041;-70
2021/05/19 01:17:49;;;;;;;30.73;18.55;;;;;;;7.13;100.00;101448.97;5050921;28;20047;-67
2021/05/19 01:20:15;;;;;;;32.03;18.70;;;;;;;7.06;100.00;101458.44;5051148;28;20036;-74
2021/05/19 01:22:42;;;;;;;32.65;18.40;;;;;;;6.97;100.00;101452.91;5050895;28;20095;-71
2021/05/19 01:25:08;;;;;;;32.78;19.35;;;;;;;6.94;100.00;101455.44;5050748;28;20041;-71
2021/05/19 01:27:34;;;;;;;32.90;19.50;;;;;;;6.97;100.00;101463.44;5050826;28;20086;-73
2021/05/19 01:30:00;;;;;;;32.33;19.42;;;;;;;6.88;100.00;101453.53;5050056;28;20032;-71
2021/05/19 01:32:26;;;;;;;33.08;20.73;;;;;;;6.93;100.00;101458.91;5050537;28;20032;-74
2021/05/19 01:34:52;;;;;;;33.53;20.48;;;;;;;6.86;100.00;101455.25;5050829;28;20041;-73
2021/05/19 01:37:18;;;;;;;33.47;21.50;;;;;;;6.87;100.00;101459.63;5046603;28;20033;-73
2021/05/19 01:39:46;;;;;;;31.80;20.42;;;;;;;6.82;100.00;101456.00;5050494;28;20057;-73
2021/05/19 01:42:12;;;;;;;31.88;20.75;;;;;;;6.79;100.00;101455.91;5050751;28;20044;-73
2021/05/19 01:44:38;;;;;;;32.88;21.33;;;;;;;6.76;100.00;101459.31;5050409;28;20025;-72
2021/05/19 01:47:04;;;;;;;32.70;21.40;;;;;;;6.84;100.00;101451.66;5067879;28;20490;-73
2021/05/19 01:49:37;;;;;;;32.13;20.70;;;;;;;6.85;100.00;101456.06;5102483;28;20459;-73
2021/05/19 01:52:04;;;;;;;32.70;21.08;;;;;;;6.81;100.00;101451.56;5103610;28;20032;-67
2021/05/19 01:54:30;;;;;;;31.60;20.65;;;;;;;6.82;100.00;101442.84;5102072;28;20062;-73
2021/05/19 01:56:56;;;;;;;33.42;21.20;;;;;;;6.78;100.00;101438.34;5104420;28;20466;-71
2021/05/19 01:59:21;;;;;;;32.65;21.52;;;;;;;6.75;100.00;101444.38;5099912;28;20027;-66
2021/05/19 02:01:46;;;;;;;32.08;22.10;;;;;;;6.78;100.00;101441.84;5104287;28;20111;-63
2021/05/19 02:04:14;;;;;;;31.85;20.58;;;;;;;6.77;100.00;101444.44;5101965;28;20114;-63
2021/05/19 02:06:42;;;;;;;32.53;21.88;;;;;;;6.76;100.00;101446.19;5103353;28;20031;-67
2021/05/19 02:09:07;;;;;;;32.85;21.25;;;;;;;6.78;100.00;101446.22;5102106;28;20531;-63
2021/05/19 02:11:33;;;;;;;32.55;22.00;;;;;;;6.78;100.00;101444.47;5102451;28;20048;-63
2021/05/19 02:14:00;;;;;;;33.17;23.08;;;;;;;6.78;100.00;101454.13;5103822;28;20062;-63
2021/05/19 02:16:25;;;;;;;34.13;22.30;;;;;;;6.84;100.00;101449.03;5101332;28;20036;-65
2021/05/19 02:18:51;;;;;;;32.72;21.65;;;;;;;6.86;100.00;101449.06;5104669;28;20374;-63
2021/05/19 02:21:16;;;;;;;32.28;21.65;;;;;;;6.85;100.00;101448.19;5101221;28;20451;-74
2021/05/19 02:23:41;;;;;;;34.35;22.67;;;;;;;6.85;100.00;101452.56;5103329;28;20016;-64
2021/05/19 02:26:06;;;;;;;34.65;23.30;;;;;;;6.80;100.00;101447.16;5102704;28;20023;-64
2021/05/19 02:28:32;;;;;;;34.83;23.77;;;;;;;6.80;100.00;101445.44;5102000;28;20478;-63
2021/05/19 02:30:57;;;;;;;34.83;22.98;;;;;;;6.85;100.00;101444.69;5103886;28;20475;-63
2021/05/19 02:33:22;;;;;;;34.22;22.42;;;;;;;6.84;100.00;101451.66;5101000;28;20048;-63
2021/05/19 02:35:48;;;;;;;34.42;24.10;;;;;;;6.80;100.00;101448.06;5096990;28;20021;-73
2021/05/19 02:38:13;;;;;;;34.67;23.58;;;;;;;6.82;100.00;101456.00;5103840;28;20466;-71
2021/05/19 02:40:39;;;;;;;35.03;24.70;;;;;;;6.78;100.00;101449.72;5102287;28;20031;-63
2021/05/19 02:43:04;;;;;;;34.95;23.88;;;;;;;6.75;100.00;101454.91;5105498;28;20050;-62
2021/05/19 02:45:30;;;;;;;35.25;23.75;;;;;;;6.75;100.00;101447.03;5107240;28;20180;-63
2021/05/19 02:47:55;;;;;;;35.90;24.27;;;;;;;6.79;100.00;101453.28;5104918;28;20069;-62
2021/05/19 02:50:20;;;;;;;36.92;24.85;;;;;;;6.80;100.00;101449.78;5108073;28;20034;-62
2021/05/19 02:52:46;;;;;;;36.05;24.20;;;;;;;6.80;100.00;101445.44;5104970;28;20072;-62
2021/05/19 02:55:11;;;;;;;36.85;26.08;;;;;;;6.76;100.00;101450.56;5107238;28;20024;-62
2021/05/19 02:57:37;;;;;;;36.95;24.98;;;;;;;6.74;100.00;101441.72;5106131;28;20016;-62
2021/05/19 03:00:05;;;;;;;39.92;26.02;;;;;;;6.70;100.00;101450.34;5105717;28;20382;-62
2021/05/19 03:02:30;;;;;;;37.28;25.58;;;;;;;6.71;100.00;101447.78;5106587;28;20087;-62
2021/05/19 03:04:56;;;;;;;38.60;26.48;;;;;;;6.73;100.00;101450.47;5104738;28;20024;-62
2021/05/19 03:07:21;;;;;;;38.95;26.58;;;;;;;6.71;100.00;101445.13;5107978;28;20028;-62
2021/05/19 03:09:46;;;;;;;36.83;24.95;;;;;;;6.74;100.00;101449.59;5104443;28;20043;-62
2021/05/19 03:12:12;;;;;;;36.60;25.13;;;;;;;6.72;100.00;101453.94;5106707;28;20046;-62
2021/05/19 03:14:37;;;;;;;39.15;25.73;;;;;;;6.72;100.00;101453.94;5105777;28;20493;-62
2021/05/19 03:17:03;;;;;;;36.83;25.45;;;;;;;6.70;100.00;101453.91;5105095;28;20388;-62
2021/05/19 03:19:29;;;;;;;37.55;25.67;;;;;;;6.63;100.00;101460.69;5106931;28;20054;-62
2021/05/19 03:21:54;;;;;;;39.38;27.15;;;;;;;6.61;100.00;101464.09;5103985;28;20047;-62
2021/05/19 03:24:20;;;;;;;39.00;26.85;;;;;;;6.62;100.00;101466.78;5107240;27;20058;-74
2021/05/19 03:26:46;;;;;;;37.25;25.92;;;;;;;6.62;100.00;101456.28;5104339;28;20028;-70
2021/05/19 03:29:11;;;;;;;39.17;25.90;;;;;;;6.57;100.00;101452.63;5106225;28;20459;-70
2021/05/19 03:31:36;;;;;;;41.40;25.38;;;;;;;6.59;100.00;101453.56;5105211;28;20019;-72
2021/05/19 03:34:02;;;;;;;40.40;26.25;;;;;;;6.57;100.00;101446.50;5104886;28;20024;-71
2021/05/19 03:36:27;;;;;;;37.70;25.13;;;;;;;6.61;100.00;101457.13;5106630;28;20085;-72
2021/05/19 03:38:52;;;;;;;41.05;25.88;;;;;;;6.61;100.00;101457.13;5103548;28;20032;-73
2021/05/19 03:41:18;;;;;;;38.35;24.88;;;;;;;6.68;100.00;101455.56;5107105;28;20443;-63
2021/05/19 03:43:43;;;;;;;40.35;25.98;;;;;;;6.68;100.00;101452.94;5104070;28;20028;-73
2021/05/19 03:46:09;;;;;;;39.67;24.77;;;;;;;6.71;100.00;101450.41;5105296;28;20028;-73
2021/05/19 03:48:34;;;;;;;38.22;25.08;;;;;;;6.76;100.00;101453.19;5105353;28;20102;-72
2021/05/19 03:51:00;;;;;;;41.25;24.23;;;;;;;6.83;100.00;101447.28;5104363;28;20465;-73
2021/05/19 03:53:25;;;;;;;39.60;24.13;;;;;;;6.83;100.00;101448.97;5105896;28;20427;-64
2021/05/19 03:55:51;;;;;;;41.00;23.42;;;;;;;6.89;100.00;101452.69;5103543;28;20485;-72
2021/05/19 03:58:16;;;;;;;39.80;24.88;;;;;;;6.94;100.00;101451.06;5106266;28;20505;-74
2021/05/19 04:00:42;;;;;;;39.50;23.48;;;;;;;6.97;100.00;101459.06;5104283;28;20024;-73
2021/05/19 04:03:08;;;;;;;40.80;22.88;;;;;;;7.03;100.00;101457.44;5104967;28;20081;-71
2021/05/19 04:05:36;;;;;;;40.60;24.23;;;;;;;7.04;100.00;101443.47;5105118;28;20020;-73
2021/05/19 04:08:03;;;;;;;41.03;23.63;;;;;;;7.08;100.00;101464.63;5104180;28;20036;-72
2021/05/19 04:10:29;;;;;;;38.53;22.38;;;;;;;7.07;100.00;101454.06;5105575;27;20047;-72
2021/05/19 04:12:54;;;;;;;40.85;22.55;;;;;;;7.12;100.00;101453.34;5101439;28;20040;-73
2021/05/19 04:15:22;;;;;;;40.08;22.63;;;;;;;7.15;100.00;101457.81;5106539;28;20031;-70
2021/05/19 04:17:48;;;;;;;41.28;22.98;;;;;;;7.18;100.00;101457.91;5103304;28;20020;-73
2021/05/19 04:20:14;;;;;;;39.78;22.77;;;;;;;7.20;100.00;101456.19;5105264;28;20031;-74
2021/05/19 04:22:41;;;;;;;38.20;21.30;;;;;;;7.22;100.00;101451.84;5104203;28;20035;-74
2021/05/19 04:25:08;;;;;;;40.00;21.95;;;;;;;7.28;100.00;101449.41;5104469;28;20424;-74
2021/05/19 04:27:33;;;;;;;42.25;23.27;;;;;;;7.31;100.00;101452.13;5104701;28;20046;-72
2021/05/19 04:29:59;;;;;;;41.30;22.58;;;;;;;7.36;100.00;101456.63;5103408;28;20024;-72
2021/05/19 04:32:25;;;;;;;42.78;21.90;;;;;;;7.40;100.00;101456.75;5106336;28;20469;-66
2021/05/19 04:34:50;;;;;;;38.75;20.95;;;;;;;7.44;100.00;101460.34;5102432;28;20485;-73
2021/05/19 04:37:15;;;;;;;41.50;21.25;;;;;;;7.47;100.00;101461.31;5105570;28;20047;-72
2021/05/19 04:39:41;;;;;;;39.75;21.63;;;;;;;7.52;100.00;101471.97;5103421;28;20022;-73
2021/05/19 04:42:06;;;;;;;39.47;21.10;;;;;;;7.53;100.00;101465.88;5104257;28;20059;-64
2021/05/19 04:44:32;;;;;;;39.17;20.88;;;;;;;7.61;100.00;101464.31;5104721;28;20385;-70
2021/05/19 04:46:57;;;;;;;43.03;22.13;;;;;;;7.68;100.00;101461.00;5097932;28;20035;-73
2021/05/19 04:49:23;;;;;;;41.03;21.92;;;;;;;7.68;100.00;101460.09;5093257;28;20023;-62
2021/05/19 04:51:48;;;;;;;41.97;21.90;;;;;;;7.72;100.00;101458.44;5092412;28;20047;-62
2021/05/19 04:54:14;;;;;;;43.20;20.58;;;;;;;7.80;100.00;101454.25;5091960;28;20414;-62
2021/05/19 04:56:39;;;;;;;40.92;20.65;;;;;;;7.87;100.00;101458.84;5090866;28;20379;-62
2021/05/19 04:59:06;;;;;;;39.35;21.50;;;;;;;7.91;100.00;101463.34;5092391;28;20471;-62
2021/05/19 05:01:32;;;;;;;41.50;21.05;;;;;;;7.93;100.00;101458.09;5091804;28;20116;-61
2021/05/19 05:03:57;;;;;;;42.80;21.90;;;;;;;7.97;100.00;101467.88;5091780;28;20099;-61
2021/05/19 05:06:22;;;;;;;39.28;19.58;;;;;;;8.05;100.00;101460.16;5091623;28;20114;-62
2021/05/19 05:08:48;;;;;;;40.22;19.90;;;;;;;8.08;100.00;101462.84;5091647;28;20020;-61
2021/05/19 05:11:14;;;;;;;39.03;20.00;;;;;;;8.11;100.00;101470.81;5092612;28;20044;-62
2021/05/19 05:13:40;;;;;;;41.00;19.75;;;;;;;8.11;100.00;101478.72;5091899;28;20090;-62
2021/05/19 05:16:05;;;;;;;42.53;20.02;;;;;;;8.14;100.00;101473.53;5092982;28;20538;-61
2021/05/19 05:18:38;;;;;;;39.40;19.10;;;;;;;8.19;100.00;101474.53;5091052;28;20439;-62
2021/05/19 05:21:05;;;;;;;40.10;20.23;;;;;;;8.15;100.00;101470.03;5092676;28;20047;-62
2021/05/19 05:23:31;;;;;;;43.88;20.98;;;;;;;8.20;100.00;101478.97;5091301;28;20028;-63
2021/05/19 05:25:58;;;;;;;42.67;21.30;;;;;;;8.26;100.00;101473.84;5094297;28;20115;-63
2021/05/19 05:28:23;;;;;;;42.10;19.75;;;;;;;8.36;100.00;101475.84;5091528;28;20501;-63
2021/05/19 05:30:49;;;;;;;43.13;20.00;;;;;;;8.45;100.00;101479.59;5092580;28;20024;-62
2021/05/19 05:33:15;;;;;;;41.92;20.50;;;;;;;8.55;100.00;101473.66;5089660;28;20032;-62
2021/05/19 05:35:41;;;;;;;40.60;20.10;;;;;;;8.66;100.00;101480.03;5091515;28;20139;-62
2021/05/19 05:38:06;;;;;;;40.95;20.13;;;;;;;8.77;98.49;101484.69;5091116;28;20406;-62
2021/05/19 05:40:31;;;;;;;40.53;19.58;;;;;;;8.75;96.57;101479.34;5093164;28;20031;-62
2021/05/19 05:42:57;;;;;;;40.00;20.35;;;;;;;8.80;98.49;101480.34;5091982;28;20028;-62
2021/05/19 05:45:22;;;;;;;42.00;19.23;;;;;;;8.81;97.00;101491.78;5092603;28;20065;-62
2021/05/19 05:47:47;;;;;;;42.65;20.95;;;;;;;8.84;99.92;101491.84;5093186;28;20034;-62
2021/05/19 05:50:13;;;;;;;43.55;20.85;;;;;;;8.88;99.71;101491.06;5089821;28;20403;-62
2021/05/19 05:52:38;;;;;;;41.40;21.30;;;;;;;8.89;98.17;101487.56;5092430;28;20020;-62
2021/05/19 05:55:04;;;;;;;39.67;20.50;;;;;;;8.88;98.70;101497.25;5091267;28;20020;-62
2021/05/19 05:57:31;;;;;;;42.42;21.20;;;;;;;8.84;97.63;101491.84;5092128;28;20620;-62
2021/05/19 05:59:56;;;;;;;42.45;22.25;;;;;;;8.89;98.05;101501.63;5091898;28;20024;-62
2021/05/19 06:02:22;;;;;;;40.53;21.15;;;;;;;9.02;97.76;101494.00;5091366;28;20093;-62
2021/05/19 06:04:47;;;;;;;43.55;21.52;;;;;;;9.07;95.82;101495.88;5091594;28;20032;-62
2021/05/19 06:07:13;;;;;;;42.17;21.48;;;;;;;9.01;96.86;101501.03;5090184;28;20031;-63
2021/05/19 06:09:38;;;;;;;43.80;22.25;;;;;;;8.99;98.26;101504.50;5091378;28;20028;-63
2021/05/19 06:12:04;;;;;;;44.85;22.25;;;;;;;8.92;97.34;101500.81;5090351;28;20052;-63
2021/05/19 06:14:29;;;;;;;40.35;19.77;;;;;;;8.92;96.27;101506.09;5090462;28;20411;-63
2021/05/19 06:16:56;;;;;;;39.67;19.77;;;;;;;8.94;95.87;101501.78;5093084;28;20024;-61
2021/05/19 06:19:21;;;;;;;39.85;19.05;;;;;;;9.06;95.60;101494.09;5096003;28;20562;-63
2021/05/19 06:21:46;;;;;;;42.78;19.90;;;;;;;9.21;94.24;101495.28;5095994;28;20111;-62
2021/05/19 06:24:12;;;;;;;36.80;18.88;;;;;;;9.36;92.81;101487.69;5095773;28;20022;-61
2021/05/19 06:26:38;;;;;;;40.17;19.27;;;;;;;9.45;92.94;101491.34;5096114;28;20052;-62
2021/05/19 06:29:03;;;;;;;40.67;19.25;;;;;;;9.60;93.17;101496.91;5095550;28;20103;-61
2021/05/19 06:31:29;;;;;;;42.10;21.27;;;;;;;9.61;90.14;101496.06;5095169;28;20115;-63
2021/05/19 06:33:54;;;;;;;43.75;21.05;;;;;;;9.77;94.10;101494.56;5096926;28;20044;-62
2021/05/19 06:36:19;;;;;;;37.45;18.35;;;;;;;9.94;91.38;101497.50;5097037;28;20028;-62
2021/05/19 06:38:45;;;;;;;42.58;20.40;;;;;;;10.00;91.97;101492.34;5094332;28;20026;-62
2021/05/19 06:41:10;;;;;;;39.00;19.40;;;;;;;9.99;89.17;101495.84;5089504;28;20067;-62
2021/05/19 06:43:35;;;;;;;40.95;19.75;;;;;;;10.01;88.49;101501.16;5092061;28;20103;-63
2021/05/19 06:46:01;;;;;;;38.50;18.52;;;;;;;10.01;89.16;101504.69;5092941;28;20095;-63
2021/05/19 06:48:26;;;;;;;37.88;18.55;;;;;;;10.15;90.87;101504.94;5096277;28;20467;-63
2021/05/19 06:50:51;;;;;;;41.47;20.23;;;;;;;10.29;89.57;101500.75;5095766;28;20070;-63
2021/05/19 06:53:17;;;;;;;39.20;19.85;;;;;;;10.39;87.42;101498.28;5095625;28;20054;-62
2021/05/19 06:55:48;;;;;;;40.78;19.75;;;;;;;10.50;88.00;101503.72;5095025;28;20077;-62
2021/05/19 06:58:13;;;;;;;39.88;20.48;;;;;;;10.57;88.53;101510.88;5095257;28;20116;-62
2021/05/19 07:00:39;;;;;;;41.15;21.80;;;;;;;10.59;85.02;101509.16;5094653;28;20347;-64
2021/05/19 07:03:04;;;;;;;41.22;21.70;;;;;;;10.62;85.42;101509.22;5095403;28;20081;-63
2021/05/19 07:05:29;;;;;;;44.40;25.08;;;;;;;10.67;86.50;101510.16;5094275;28;20067;-62
2021/05/19 07:07:55;;;;;;;43.10;23.25;;;;;;;10.67;84.58;101512.78;5094074;28;20020;-63
2021/05/19 07:10:20;;;;;;;44.15;24.58;;;;;;;10.72;84.79;101511.13;5094625;28;20127;-63
2021/05/19 07:12:46;;;;;;;42.33;24.05;;;;;;;10.77;85.29;101509.41;5095198;28;20078;-63
2021/05/19 07:15:14;;;;;;;40.42;21.45;;;;;;;10.68;82.36;101509.28;5089731;28;20478;-62
2021/05/19 07:17:40;;;;;;;39.67;21.15;;;;;;;10.69;84.13;101518.09;5096912;28;20031;-63
2021/05/19 07:20:08;;;;;;;39.83;20.98;;;;;;;10.73;83.93;101512.91;5093172;28;20043;-64
2021/05/19 07:22:34;;;;;;;37.08;21.85;;;;;;;10.91;81.74;101519.31;5094374;28;20501;-65
2021/05/19 07:24:59;;;;;;;39.88;21.10;;;;;;;11.07;81.82;101521.28;5093722;28;20033;-62
2021/05/19 07:27:25;;;;;;;40.55;20.98;;;;;;;11.31;80.62;101517.16;5093282;28;20308;-62
2021/05/19 07:29:50;;;;;;;36.65;18.70;;;;;;;11.43;79.72;101517.34;5094155;28;20042;-62
2021/05/19 07:32:16;;;;;;;38.30;19.27;;;;;;;11.49;77.38;101513.88;5093995;28;20077;-63
2021/05/19 07:34:41;;;;;;;36.65;20.48;;;;;;;11.63;78.02;101508.72;5093741;28;20067;-66
2021/05/19 07:37:06;;;;;;;39.30;20.20;;;;;;;11.68;76.11;101517.59;5094792;28;20104;-63
2021/05/19 07:39:32;;;;;;;38.55;20.70;;;;;;;11.54;76.76;101519.22;5093409;28;20512;-73
2021/05/19 07:41:57;;;;;;;38.33;20.75;;;;;;;11.47;78.42;101519.13;5093248;28;20024;-69
2021/05/19 07:44:23;;;;;;;38.55;20.73;;;;;;;11.59;76.45;101523.69;5092686;28;20474;-66
2021/05/19 07:46:48;;;;;;;37.58;21.08;;;;;;;11.52;79.60;101527.13;5093211;28;20035;-65
2021/05/19 07:49:14;;;;;;;36.58;20.35;;;;;;;11.45;76.17;101520.88;5094430;28;20394;-72
2021/05/19 07:51:41;;;;;;;36.25;20.42;;;;;;;11.48;77.75;101528.84;5093197;28;20069;-73
2021/05/19 07:54:07;;;;;;;36.28;20.30;;;;;;;11.58;77.93;101528.97;5091277;28;20549;-69
2021/05/19 07:56:48;;;;;;;37.58;20.17;;;;;;;11.89;75.55;101518.69;5092573;28;20047;-66
2021/05/19 07:59:16;;;;;;;35.50;19.55;;;;;;;12.09;75.21;101521.56;5094082;28;20028;-72
2021/05/19 08:04:08;;;;;;;36.63;19.75;;;;;;;12.29;75.21;101519.06;5093455;28;20032;-67
2021/05/19 08:06:35;;;;;;;34.25;19.25;;;;;;;12.32;73.36;101527.94;5094386;28;20078;-69
2021/05/19 08:09:01;;;;;;;37.28;19.60;;;;;;;12.35;73.19;101517.34;5106211;28;20498;-67
2021/05/19 08:11:26;;;;;;;36.15;19.10;;;;;;;12.45;72.27;101520.06;5098140;28;20127;-71
2021/05/19 08:13:51;;;;;;;37.65;19.40;;;;;;;12.41;73.84;101527.13;5094781;28;20024;-72
2021/05/19 08:16:17;;;;;;;36.80;19.58;;;;;;;12.44;70.98;101524.47;5094197;28;20021;-68
2021/05/19 08:18:43;;;;;;;35.10;19.23;;;;;;;12.43;71.64;101525.34;5092858;28;20172;-68
2021/05/19 08:21:09;;;;;;;35.10;19.27;;;;;;;12.70;73.32;101529.97;5091417;28;20056;-70
2021/05/19 08:23:34;;;;;;;35.70;19.85;;;;;;;12.76;70.67;101522.94;5092589;28;20490;-71
2021/05/19 08:26:00;;;;;;;37.55;18.92;;;;;;;12.53;70.52;101529.84;5093840;28;20042;-68
2021/05/19 08:28:25;;;;;;;37.95;19.67;;;;;;;12.38;70.88;101527.97;5093024;28;20399;-64
2021/05/19 08:30:51;;;;;;;32.75;19.05;;;;;;;12.18;71.03;101524.28;5092986;28;20032;-63
2021/05/19 08:33:16;;;;;;;34.55;18.90;;;;;;;12.19;71.82;101524.28;5092994;28;20029;-63
2021/05/19 08:35:41;;;;;;;33.90;18.92;;;;;;;12.34;71.47;101523.53;5090757;28;20490;-63
2021/05/19 08:38:07;;;;;;;35.10;18.08;;;;;;;12.45;69.58;101523.63;5092287;28;20023;-63
2021/05/19 08:40:33;;;;;;;34.00;16.67;;;;;;;12.47;68.86;101519.19;5093322;28;20032;-63
2021/05/19 08:42:58;;;;;;;32.30;16.83;;;;;;;12.51;69.59;101521.00;5097425;28;20576;-63
2021/05/19 08:45:24;;;;;;;33.53;17.05;;;;;;;12.58;68.24;101505.13;5103781;28;20429;-70
2021/05/19 08:47:59;;;;;;;33.45;16.85;;;;;;;12.61;68.36;101516.66;5103714;28;20028;-72
2021/05/19 08:50:24;;;;;;;35.83;16.20;;;;;;;12.78;68.55;101513.22;5104183;28;20097;-74
2021/05/19 08:52:50;;;;;;;31.35;15.80;;;;;;;12.99;67.10;101505.38;5103657;28;20185;-73
2021/05/19 08:55:18;;;;;;;33.03;15.63;;;;;;;13.27;67.15;101505.50;5103029;28;20031;-71
2021/05/19 08:57:44;;;;;;;32.25;14.45;;;;;;;13.48;63.51;101511.78;5094468;28;20040;-74
2021/05/19 09:00:10;;;;;;;31.40;14.48;;;;;;;13.33;66.41;101494.00;5095205;28;20103;-72
2021/05/19 09:02:36;;;;;;;30.10;13.50;;;;;;;13.38;64.92;101497.59;5093661;28;20417;-68
2021/05/19 09:05:03;;;;;;;31.73;13.48;;;;;;;13.46;65.27;101490.53;5091454;28;20033;-66
2021/05/19 09:07:29;;;;;;;29.70;13.65;;;;;;;13.40;64.78;101495.84;5092806;28;20107;-73
2021/05/19 09:09:54;;;;;;;29.55;12.93;;;;;;;13.60;64.72;101486.16;5091989;28;20050;-65
2021/05/19 09:12:20;;;;;;;30.42;13.50;;;;;;;13.85;62.89;101490.59;5091488;28;20063;-70
2021/05/19 09:14:51;;;;;;;29.15;12.57;;;;;;;14.30;61.71;101478.22;5098610;28;20024;-68
2021/05/19 09:17:22;;;;;;;26.75;12.10;;;;;;;14.60;60.35;101477.25;5091884;28;20415;-65
2021/05/19 09:19:48;;;;;;;28.52;11.77;;;;;;;14.71;57.66;101479.03;5092291;28;20031;-64
2021/05/19 09:22:22;;;;;;;27.70;11.13;;;;;;;14.68;58.33;101484.38;5091632;28;20056;-68
2021/05/19 09:24:48;;;;;;;27.10;12.10;;;;;;;14.73;60.48;101480.81;5092124;28;20020;-68
2021/05/19 09:27:15;;;;;;;29.23;10.65;;;;;;;15.08;58.21;101482.47;5091176;28;20218;-63
2021/05/19 09:29:49;;;;;;;24.85;10.40;;;;;;;15.04;57.08;101487.81;5092638;28;20054;-65
2021/05/19 09:32:16;;;;;;;27.33;11.07;;;;;;;15.02;55.12;101492.25;5091337;28;20462;-65
2021/05/19 09:34:44;;;;;;;25.65;10.48;;;;;;;14.97;56.51;101476.31;5091537;28;20447;-73
2021/05/19 09:37:27;;;;;;;28.77;10.90;;;;;;;15.03;56.77;101473.63;5092079;28;20024;-65
2021/05/19 09:40:00;;;;;;;27.27;12.10;;;;;;;15.15;56.92;101480.66;5092121;28;20016;-66
2021/05/19 09:42:35;;;;;;;30.05;12.98;;;;;;;14.78;55.33;101487.00;5092347;28;20032;-69
2021/05/19 09:45:23;;;;;;;32.45;14.93;;;;;;;14.81;56.79;101480.81;5091409;28;20372;-66
2021/05/19 09:47:51;;;;;;;34.00;15.15;;;;;;;15.02;56.43;101470.97;5090306;28;20031;-74
2021/05/19 09:50:19;;;;;;;32.45;14.68;;;;;;;15.27;55.97;101477.94;5090164;28;20422;-71
2021/05/19 09:53:00;;;;;;;33.78;14.80;;;;;;;15.14;56.12;101482.47;5089543;28;20055;-63
2021/05/19 09:55:26;;;;;;;30.10;13.60;;;;;;;14.42;55.95;101474.66;5091269;28;20118;-64
2021/05/19 09:57:51;;;;;;;33.25;15.75;;;;;;;14.57;57.70;101473.72;5092109;28;20099;-63
2021/05/19 10:00:23;;;;;;;32.92;13.93;;;;;;;15.07;56.37;101480.72;5090459;28;20032;-66
2021/05/19 10:02:48;;;;;;;32.33;12.40;;;;;;;15.10;55.24;101475.38;5093661;28;20040;-64
2021/05/19 10:08:02;;;;;;;29.25;11.77;;;;;;;16.81;51.08;101464.25;5050969;28;20041;-64
2021/05/19 10:10:27;;;;;;;34.25;14.27;;;;;;;18.54;48.97;101467.91;5048801;28;20368;-64
2021/05/19 10:12:54;;;;;;;34.65;15.93;;;;;;;18.06;49.22;101471.44;5051335;28;20033;-64
2021/05/19 10:15:26;;;;;;;30.90;15.40;;;;;;;17.24;52.96;101464.63;5053286;28;20384;-64
2021/05/19 10:17:56;;;;;;;32.00;15.57;;;;;;;16.65;52.24;101471.56;5042092;28;20071;-70
2021/05/19 10:20:25;;;;;;;31.13;15.25;;;;;;;16.99;50.63;101468.50;5038212;28;20033;-73
2021/05/19 10:22:52;;;;;;;30.48;15.15;;;;;;;18.38;48.09;101478.03;5041640;28;20037;-66
2021/05/19 10:25:49;;;;;;;30.55;15.18;;;;;;;17.96;49.98;101475.19;5037745;28;20512;-64
2021/05/19 10:28:17;;;;;;;29.00;13.23;;;;;;;16.58;50.96;101473.41;4979163;28;20125;-63
2021/05/19 10:30:47;;;;;;;30.58;13.15;;;;;;;15.52;54.53;101485.78;4982128;28;20022;-67
2021/05/19 10:33:32;;;;;;;22.30;7.03;;;;;;;15.01;56.48;101487.81;4979469;28;20042;-73
2021/05/19 10:35:59;;;;;;;24.58;8.38;;;;;;;13.50;71.90;101499.38;4977700;28;20035;-73
2021/05/19 10:38:28;;;;;;;36.47;17.02;;;;;;;11.44;94.31;101497.91;4981996;28;20041;-70
2021/05/19 10:40:57;;;;;;;37.03;18.52;;;;;;;11.06;100.00;101494.81;4979741;28;20066;-66
2021/05/19 10:43:44;;;;;;;34.15;16.42;;;;;;;11.00;91.61;101511.50;4982253;28;20062;-64
2021/05/19 10:46:12;;;;;;;36.85;18.35;;;;;;;10.19;100.00;101509.38;5028157;28;20083;-66
2021/05/19 10:48:38;;;;;;;39.75;21.05;;;;;;;10.02;100.00;101514.41;5029805;28;20029;-70
2021/05/19 10:51:37;;;;;;;42.05;22.42;;;;;;;9.96;100.00;101530.16;5029581;28;20068;-70
2021/05/19 11:00:17;;;;;;;34.30;15.32;;;;;;;9.18;100.00;101559.41;5028515;28;20443;-68
2021/05/19 11:02:58;;;;;;;35.67;16.92;;;;;;;8.57;100.00;101561.53;4972846;28;20390;-70
2021/05/19 11:05:33;;;;;;;38.15;17.98;;;;;;;8.60;100.00;101561.63;5025767;28;20037;-69
2021/05/19 11:08:07;;;;;;;35.78;17.80;;;;;;;8.58;100.00;101563.34;5006439;28;20439;-63
2021/05/19 11:10:41;;;;;;;34.75;16.58;;;;;;;8.95;100.00;101551.00;5026867;28;20562;-65
2021/05/19 11:13:08;;;;;;;35.95;17.75;;;;;;;9.10;100.00;101562.75;5027007;28;20112;-70
2021/05/19 11:21:19;;;;;;;35.85;18.33;;;;;;;9.39;100.00;101561.63;4951699;29;20027;-66
2021/05/19 11:24:07;;;;;;;35.40;17.95;;;;;;;9.46;100.00;101562.63;4952810;29;20035;-69
2021/05/19 11:26:42;;;;;;;39.17;19.30;;;;;;;9.61;100.00;101564.69;4951697;29;20173;-71
2021/05/19 11:29:10;;;;;;;39.45;20.42;;;;;;;9.82;100.00;101561.56;4952142;28;20474;-63
2021/05/19 11:31:43;;;;;;;40.33;20.80;;;;;;;10.02;100.00;101575.16;4952000;29;20034;-63